Terminal Aerodrome Forecast
Issued by NWS

Home | Current Version | Previous Version | Text Only | Print | Product List | Glossary On
Versions: 1 2 3 4 5 6 7 8 9 10 11 12 13
433
FTUS42 TJSJ 221137
TAFIST
TAF
TIST 221137Z 2212/2312 09007KT P6SM FEW025 SCT050
     FM221400 09012KT P6SM FEW025 SCT035
     FM222300 09008KT P6SM VCSH SCT025 BKN060=

USA.gov is the U.S. government's official web portal to all federal, state and local government web resources and services.